Time;durP1;ratioP1;P1;durP2;ratioP2;P2;SDS_P1;SDS_P2;PMS_P1;PMS_P2;Temp;Humidity;BMP_temperature;BMP_pressure;BME280_temperature;BME280_humidity;BME280_pressure;Samples;Min_cycle;Max_cycle;Signal;HPM_P1;HPM_P2
2022/09/26 00:00:05;;;;;;;13.73;8.70;;;10.00;99.90;;;;;;10494038;28;20223;-76
2022/09/26 00:05:10;;;;;;;14.00;8.50;;;10.00;99.90;;;;;;10483206;28;20262;-75
2022/09/26 00:10:10;;;;;;;11.20;8.60;;;10.00;99.90;;;;;;10480735;28;20179;-76
2022/09/26 00:15:12;;;;;;;14.10;8.97;;;10.10;99.90;;;;;;10487617;28;20575;-77
2022/09/26 00:20:13;;;;;;;14.83;8.60;;;10.00;99.90;;;;;;10501234;28;20193;-77
2022/09/26 00:25:14;;;;;;;11.10;8.60;;;10.00;99.90;;;;;;10509186;28;20231;-78
2022/09/26 00:30:14;;;;;;;15.00;9.03;;;10.00;99.90;;;;;;10496943;28;20207;-77
2022/09/26 00:35:15;;;;;;;12.33;8.57;;;9.90;99.90;;;;;;10479002;28;20827;-78
2022/09/26 00:40:15;;;;;;;14.23;8.77;;;9.90;99.90;;;;;;10494054;28;20522;-78
2022/09/26 00:45:16;;;;;;;15.87;8.20;;;9.90;99.90;;;;;;10478419;28;20215;-78
2022/09/26 00:50:22;;;;;;;14.57;7.70;;;9.80;99.90;;;;;;10479260;28;20185;-75
2022/09/26 00:55:28;;;;;;;14.20;8.80;;;9.70;99.90;;;;;;10502806;28;20199;-77
2022/09/26 01:00:29;;;;;;;15.70;8.07;;;9.70;99.90;;;;;;10498919;28;20698;-78
2022/09/26 01:05:31;;;;;;;10.90;7.73;;;9.70;99.90;;;;;;10485810;28;20274;-79
2022/09/26 01:10:34;;;;;;;14.60;9.03;;;9.80;99.90;;;;;;10475722;28;20822;-79
2022/09/26 01:15:35;;;;;;;12.53;8.73;;;9.80;99.90;;;;;;10486433;28;20230;-76
2022/09/26 01:20:55;;;;;;;12.23;8.73;;;9.80;99.90;;;;;;10490749;28;20226;-78
2022/09/26 01:26:26;;;;;;;12.63;8.37;;;9.70;99.90;;;;;;10478107;28;20242;-78
2022/09/26 01:37:13;;;;;;;13.63;9.93;;;9.60;99.90;;;;;;10497520;28;20230;-77
2022/09/26 01:42:25;;;;;;;17.93;9.70;;;9.60;99.90;;;;;;10475580;28;20256;-76
2022/09/26 01:47:39;;;;;;;12.03;9.63;;;9.60;99.90;;;;;;10487629;28;20259;-76
2022/09/26 01:52:47;;;;;;;13.20;9.27;;;9.60;99.90;;;;;;10465187;28;20698;-76
2022/09/26 01:57:57;;;;;;;13.37;9.83;;;9.60;99.90;;;;;;10483457;28;20214;-74
2022/09/26 02:03:00;;;;;;;14.93;10.37;;;9.50;99.90;;;;;;10471084;28;20236;-75
2022/09/26 02:08:15;;;;;;;17.77;11.00;;;9.50;99.90;;;;;;10496429;28;20233;-77
2022/09/26 02:13:24;;;;;;;14.43;10.87;;;9.50;99.90;;;;;;10479433;28;20210;-77
2022/09/26 02:18:30;;;;;;;16.37;10.80;;;9.40;99.90;;;;;;10499303;28;20215;-76
2022/09/26 02:23:31;;;;;;;13.57;10.80;;;9.40;99.90;;;;;;10470522;28;20219;-76
2022/09/26 02:28:31;;;;;;;16.07;10.17;;;9.40;99.90;;;;;;10496377;28;20237;-75
2022/09/26 02:33:32;;;;;;;16.77;11.30;;;9.40;99.90;;;;;;10473362;28;20229;-76
2022/09/26 02:38:36;;;;;;;14.77;10.07;;;9.30;99.90;;;;;;10486853;28;20299;-75
2022/09/26 02:44:12;;;;;;;15.57;11.40;;;9.30;99.90;;;;;;10483872;28;20253;-75
2022/09/26 02:49:34;;;;;;;14.23;10.80;;;9.30;99.90;;;;;;10497246;28;20256;-76
2022/09/26 02:54:45;;;;;;;15.33;11.40;;;9.40;99.90;;;;;;10488841;28;20217;-76
2022/09/26 03:00:06;;;;;;;17.60;11.13;;;9.40;99.90;;;;;;10489460;28;20306;-76
2022/09/26 03:05:19;;;;;;;14.67;11.40;;;9.40;99.90;;;;;;10479127;28;20228;-76
2022/09/26 03:10:20;;;;;;;16.03;11.10;;;9.40;99.90;;;;;;10468469;28;20182;-76
2022/09/26 03:15:22;;;;;;;17.20;10.80;;;9.30;99.90;;;;;;10494167;28;20187;-75
2022/09/26 03:20:24;;;;;;;20.73;11.33;;;9.30;99.90;;;;;;10469920;28;20243;-76
2022/09/26 03:25:26;;;;;;;16.10;11.27;;;9.30;99.90;;;;;;10489933;28;20455;-76
2022/09/26 03:30:31;;;;;;;17.10;11.40;;;9.30;99.90;;;;;;10476437;28;20228;-76
2022/09/26 03:35:31;;;;;;;14.37;11.20;;;9.30;99.90;;;;;;10472265;28;20221;-75
2022/09/26 03:40:35;;;;;;;16.93;12.70;;;9.20;99.90;;;;;;10500653;28;20707;-75
2022/09/26 03:45:36;;;;;;;16.97;12.60;;;9.20;99.90;;;;;;10478755;28;20241;-72
2022/09/26 03:50:36;;;;;;;20.03;12.30;;;9.30;99.90;;;;;;10488819;28;20236;-73
2022/09/26 03:55:37;;;;;;;18.90;13.03;;;9.20;99.90;;;;;;10498628;28;20621;-76
2022/09/26 04:00:38;;;;;;;18.10;12.23;;;9.20;99.90;;;;;;10494380;28;20217;-78
2022/09/26 04:05:39;;;;;;;15.93;12.20;;;9.20;99.90;;;;;;10498318;28;20282;-78
2022/09/26 04:10:39;;;;;;;14.93;12.40;;;9.10;99.90;;;;;;10497405;28;20275;-78
2022/09/26 04:15:40;;;;;;;14.27;12.43;;;9.10;99.90;;;;;;10502199;28;20300;-75
2022/09/26 04:20:42;;;;;;;15.50;12.27;;;9.10;99.90;;;;;;10486355;28;20238;-76
2022/09/26 04:25:43;;;;;;;13.57;11.90;;;9.10;99.90;;;;;;10489621;28;20337;-74
2022/09/26 04:30:44;;;;;;;16.13;12.83;;;9.00;99.90;;;;;;10504485;28;20222;-74
2022/09/26 04:35:44;;;;;;;16.20;12.33;;;9.00;99.90;;;;;;10494620;28;20256;-71
2022/09/26 04:40:45;;;;;;;15.03;12.13;;;9.00;99.90;;;;;;10504308;28;20326;-70
2022/09/26 04:45:45;;;;;;;19.70;12.60;;;9.00;99.90;;;;;;10493824;28;20802;-70
2022/09/26 04:50:48;;;;;;;19.90;15.32;;;9.10;99.90;;;;;;10481533;28;20418;-70
2022/09/26 04:55:53;;;;;;;16.87;11.90;;;9.10;99.90;;;;;;10478061;28;20233;-70
2022/09/26 05:00:54;;;;;;;19.63;12.27;;;9.10;99.90;;;;;;10497291;28;20223;-71
2022/09/26 05:05:55;;;;;;;15.50;11.60;;;9.20;99.90;;;;;;10464909;28;20228;-71
2022/09/26 05:10:56;;;;;;;19.07;12.80;;;9.20;99.90;;;;;;10490707;28;20281;-70
2022/09/26 05:15:58;;;;;;;15.17;11.47;;;9.30;99.90;;;;;;10471255;28;20301;-71
2022/09/26 05:21:00;;;;;;;17.03;11.03;;;9.40;99.90;;;;;;10486715;28;20222;-70
2022/09/26 05:26:19;;;;;;;15.57;10.40;;;9.50;99.90;;;;;;10489041;28;20217;-73
2022/09/26 05:31:24;;;;;;;15.33;10.10;;;9.60;99.90;;;;;;10488206;28;20632;-74
2022/09/26 05:36:25;;;;;;;12.37;9.80;;;9.70;99.90;;;;;;10464876;28;20269;-73
2022/09/26 05:41:31;;;;;;;11.67;8.23;;;9.90;99.90;;;;;;10487775;28;20708;-72
2022/09/26 05:46:33;;;;;;;11.77;8.77;;;10.00;99.90;;;;;;10490389;28;20245;-73
2022/09/26 05:51:34;;;;;;;13.47;8.57;;;10.10;99.90;;;;;;10488877;28;20223;-74
2022/09/26 05:56:36;;;;;;;11.43;8.13;;;10.20;99.90;;;;;;10487426;28;20270;-74
2022/09/26 06:01:36;;;;;;;10.37;7.37;;;10.30;99.90;;;;;;10470285;28;20238;-73
2022/09/26 06:06:37;;;;;;;11.53;7.33;;;10.50;99.90;;;;;;10473316;28;20302;-72
2022/09/26 06:11:38;;;;;;;10.93;7.73;;;10.70;99.90;;;;;;10470388;28;20227;-73
2022/09/26 06:16:39;;;;;;;8.73;6.87;;;10.90;99.90;;;;;;10487852;28;20346;-73
2022/09/26 06:21:39;;;;;;;9.20;7.13;;;11.10;99.90;;;;;;10488513;28;20697;-76
2022/09/26 06:26:40;;;;;;;10.07;6.27;;;11.30;99.90;;;;;;10470358;28;20222;-75
2022/09/26 06:31:40;;;;;;;8.17;5.40;;;11.70;99.90;;;;;;10488700;28;20634;-74
2022/09/26 06:36:41;;;;;;;9.20;5.90;;;11.80;99.90;;;;;;10466995;28;20664;-75
2022/09/26 06:41:42;;;;;;;11.87;5.70;;;11.90;99.90;;;;;;10489104;28;20869;-74
2022/09/26 06:46:43;;;;;;;9.23;5.30;;;11.90;99.90;;;;;;10486409;28;20219;-74
2022/09/26 06:51:47;;;;;;;10.17;5.57;;;11.90;99.90;;;;;;10484930;28;20227;-75
2022/09/26 06:56:48;;;;;;;7.73;5.00;;;12.00;99.90;;;;;;10467770;28;20226;-75
2022/09/26 07:01:48;;;;;;;8.57;4.63;;;12.40;99.90;;;;;;10480256;28;20224;-74
2022/09/26 07:06:49;;;;;;;7.33;4.80;;;12.40;99.90;;;;;;10488723;28;20226;-74
2022/09/26 07:11:50;;;;;;;9.73;4.87;;;12.30;99.90;;;;;;10469477;28;20230;-75
2022/09/26 07:16:50;;;;;;;8.17;4.90;;;12.50;99.90;;;;;;10468080;28;20257;-75
2022/09/26 07:21:51;;;;;;;6.83;4.40;;;12.60;99.90;;;;;;10495724;28;20226;-74
2022/09/26 07:26:52;;;;;;;6.50;4.23;;;12.80;99.90;;;;;;10476923;28;20222;-75
2022/09/26 07:31:52;;;;;;;10.57;4.07;;;13.00;99.90;;;;;;10476241;28;20229;-76
2022/09/26 07:36:53;;;;;;;4.90;3.23;;;13.60;99.90;;;;;;10484192;28;20227;-75
2022/09/26 07:41:54;;;;;;;4.77;2.90;;;17.60;99.90;;;;;;10479309;28;20229;-76
2022/09/26 07:52:16;;;;;;;4.80;2.80;;;25.40;90.50;;;;;;10481035;28;20224;-75
2022/09/26 07:57:18;;;;;;;6.20;2.97;;;27.40;70.80;;;;;;10474152;28;20239;-74
2022/09/26 08:02:23;;;;;;;5.53;3.07;;;28.50;59.90;;;;;;10462006;28;20230;-75
2022/09/26 08:07:25;;;;;;;3.53;2.73;;;28.80;55.90;;;;;;10477047;28;20348;-74
2022/09/26 08:12:26;;;;;;;4.37;2.70;;;28.50;54.50;;;;;;10480658;28;20226;-74
2022/09/26 08:17:32;;;;;;;5.87;2.77;;;29.00;53.70;;;;;;10454211;28;20879;-75
2022/09/26 08:22:33;;;;;;;2.93;2.50;;;30.50;50.50;;;;;;10480144;28;20219;-75
2022/09/26 08:27:34;;;;;;;5.67;2.80;;;31.70;47.20;;;;;;10474327;28;20721;-74
2022/09/26 08:32:36;;;;;;;5.97;2.90;;;30.30;47.20;;;;;;10464960;28;20277;-76
2022/09/26 08:37:38;;;;;;;5.93;3.30;;;29.00;50.30;;;;;;10482229;28;20586;-74
2022/09/26 08:43:05;;;;;;;6.43;2.60;;;27.40;51.00;;;;;;10495911;28;20213;-75
2022/09/26 08:48:26;;;;;;;5.80;3.30;;;25.90;53.90;;;;;;10481381;28;20230;-75
2022/09/26 08:53:39;;;;;;;3.83;2.67;;;24.00;58.20;;;;;;10486232;28;20231;-75
2022/09/26 08:58:43;;;;;;;4.80;2.73;;;22.70;63.80;;;;;;10486606;28;20247;-76
2022/09/26 09:03:52;;;;;;;4.90;3.20;;;22.10;65.40;;;;;;10479373;28;20223;-74
2022/09/26 09:08:56;;;;;;;6.33;3.40;;;21.20;70.70;;;;;;10474193;28;20230;-75
2022/09/26 09:14:15;;;;;;;5.73;3.30;;;20.90;74.30;;;;;;10464629;28;20226;-74
2022/09/26 09:19:27;;;;;;;4.40;3.53;;;20.70;76.70;;;;;;10494901;28;20225;-76
2022/09/26 09:24:46;;;;;;;6.87;3.50;;;20.50;78.30;;;;;;10493379;28;20564;-75
2022/09/26 09:30:16;;;;;;;4.30;3.30;;;19.90;82.10;;;;;;10478598;28;20222;-74
2022/09/26 09:35:24;;;;;;;7.77;3.03;;;20.20;83.60;;;;;;10486870;28;20238;-76
2022/09/26 09:40:30;;;;;;;3.07;1.97;;;22.40;75.90;;;;;;10483434;28;20287;-74
2022/09/26 09:45:49;;;;;;;3.67;2.10;;;22.60;68.90;;;;;;10485438;28;20256;-74
2022/09/26 09:51:20;;;;;;;3.40;1.77;;;21.20;73.40;;;;;;10471436;28;20280;-76
2022/09/26 09:56:50;;;;;;;3.40;1.20;;;20.60;76.80;;;;;;10469489;28;20227;-75
2022/09/26 10:02:11;;;;;;;5.93;1.60;;;23.60;68.40;;;;;;10469864;28;20886;-74
2022/09/26 10:07:12;;;;;;;3.87;1.70;;;25.20;59.40;;;;;;10466189;28;20223;-74
2022/09/26 10:12:21;;;;;;;4.50;1.67;;;23.30;64.00;;;;;;10465595;28;20222;-75
2022/09/26 10:17:23;;;;;;;3.17;1.40;;;21.10;72.10;;;;;;10475492;28;20297;-76
2022/09/26 10:22:36;;;;;;;5.37;1.50;;;20.20;77.20;;;;;;10467073;28;20280;-75
2022/09/26 10:27:39;;;;;;;2.40;1.63;;;21.00;74.40;;;;;;10448764;28;20243;-75
2022/09/26 10:32:44;;;;;;;2.33;1.30;;;23.90;68.60;;;;;;10463899;28;20233;-74
2022/09/26 10:38:16;;;;;;;4.23;1.30;;;26.90;55.30;;;;;;10468093;28;20220;-75
2022/09/26 10:43:34;;;;;;;2.67;1.20;;;27.90;53.40;;;;;;10469334;28;20219;-75
2022/09/26 10:48:53;;;;;;;2.53;1.20;;;29.30;48.10;;;;;;10473088;28;20713;-74
2022/09/26 10:54:03;;;;;;;4.93;1.40;;;27.20;50.00;;;;;;10482078;28;20487;-76
2022/09/26 10:59:07;;;;;;;3.57;1.37;;;24.40;55.50;;;;;;10459857;28;20696;-76
2022/09/26 11:05:55;;;;;;;2.83;1.10;;;22.70;59.50;;;;;;10469168;28;20618;-75
2022/09/26 11:09:37;;;;;;;5.47;1.40;;;23.20;59.60;;;;;;10486660;28;20223;-74
2022/09/26 11:14:44;;;;;;;3.57;1.30;;;22.20;61.60;;;;;;10471643;28;20778;-75
2022/09/26 11:19:57;;;;;;;3.53;1.00;;;21.60;64.10;;;;;;10486368;28;20236;-75
2022/09/26 11:25:09;;;;;;;2.33;1.10;;;20.90;66.80;;;;;;10485568;28;20261;-75
2022/09/26 11:30:19;;;;;;;2.23;1.60;;;20.90;67.30;;;;;;10487146;28;20258;-77
2022/09/26 11:35:28;;;;;;;5.17;1.43;;;20.40;66.70;;;;;;10488056;28;20185;-75
2022/09/26 11:40:37;;;;;;;3.07;1.10;;;20.50;68.80;;;;;;10477809;28;20224;-76
2022/09/26 11:46:02;;;;;;;2.87;1.37;;;20.30;68.40;;;;;;10482211;28;20834;-76
2022/09/26 11:51:48;;;;;;;3.07;1.30;;;19.70;70.10;;;;;;10485852;28;20225;-75
2022/09/26 11:57:20;;;;;;;2.37;1.40;;;19.40;72.60;;;;;;10411758;28;20231;-75
2022/09/26 12:02:53;;;;;;;2.07;1.10;;;19.40;73.10;;;;;;10484248;28;20229;-74
2022/09/26 12:08:18;;;;;;;1.80;1.10;;;19.60;71.50;;;;;;10470530;28;20610;-76
2022/09/26 12:14:00;;;;;;;3.17;1.40;;;19.60;71.60;;;;;;10488943;28;20811;-76
2022/09/26 12:19:19;;;;;;;2.63;1.37;;;19.60;73.10;;;;;;10490035;28;20286;-75
2022/09/26 12:24:28;;;;;;;2.07;1.20;;;19.60;72.00;;;;;;10496678;28;20224;-75
2022/09/26 12:29:33;;;;;;;5.07;3.43;;;19.60;72.30;;;;;;10496358;28;20226;-76
2022/09/26 12:34:45;;;;;;;2.23;1.27;;;19.60;73.10;;;;;;10476635;28;20224;-77
2022/09/26 12:40:13;;;;;;;4.10;1.23;;;19.40;73.60;;;;;;10473995;28;20244;-75
2022/09/26 12:45:46;;;;;;;3.43;1.17;;;19.30;74.50;;;;;;10488860;28;20224;-73
2022/09/26 12:51:07;;;;;;;2.33;1.20;;;19.00;75.50;;;;;;10497948;28;20225;-75
2022/09/26 12:56:11;;;;;;;9.40;1.40;;;18.90;76.60;;;;;;10478624;28;20242;-75
2022/09/26 13:01:49;;;;;;;2.73;1.30;;;18.40;76.00;;;;;;10473812;28;20289;-75
2022/09/26 13:07:28;;;;;;;3.53;2.30;;;18.10;78.20;;;;;;10472763;28;20308;-75
2022/09/26 13:12:45;;;;;;;2.13;1.27;;;18.10;80.00;;;;;;10478352;28;20300;-76
2022/09/26 13:17:53;;;;;;;6.40;1.30;;;18.20;79.80;;;;;;10477507;28;20251;-75
2022/09/26 13:23:19;;;;;;;2.97;1.27;;;18.30;81.20;;;;;;10488235;28;20223;-75
2022/09/26 13:28:28;;;;;;;2.03;1.40;;;18.30;82.50;;;;;;10488806;28;20220;-76
2022/09/26 13:33:43;;;;;;;2.17;1.30;;;17.90;86.40;;;;;;10479948;28;20216;-76
2022/09/26 13:38:55;;;;;;;1.33;1.23;;;17.40;90.80;;;;;;10484916;28;20296;-75
2022/09/26 13:44:28;;;;;;;2.20;1.33;;;17.30;92.50;;;;;;10497789;28;20243;-75
2022/09/26 13:49:43;;;;;;;3.30;1.20;;;17.40;93.10;;;;;;10457652;28;20224;-75
2022/09/26 13:54:56;;;;;;;3.50;1.40;;;17.60;92.80;;;;;;10491014;28;20234;-76
2022/09/26 13:59:56;;;;;;;3.83;1.27;;;17.80;93.20;;;;;;10470227;28;20219;-77
2022/09/26 14:05:00;;;;;;;2.03;1.17;;;18.10;92.40;;;;;;10474211;28;20219;-77
2022/09/26 14:10:01;;;;;;;2.63;1.20;;;18.10;91.90;;;;;;10488925;28;20219;-75
2022/09/26 14:15:22;;;;;;;2.80;1.03;;;18.10;91.90;;;;;;10487085;28;20220;-76
2022/09/26 14:20:33;;;;;;;2.67;1.17;;;18.20;91.70;;;;;;10492153;28;20609;-76
2022/09/26 14:25:46;;;;;;;4.07;1.20;;;18.00;91.70;;;;;;10494909;28;20643;-76
2022/09/26 14:31:25;;;;;;;3.50;1.03;;;17.60;92.10;;;;;;10467833;28;20294;-76
2022/09/26 14:36:31;;;;;;;3.03;1.10;;;17.40;92.70;;;;;;10467720;28;20317;-77
2022/09/26 14:41:35;;;;;;;0.80;0.80;;;17.30;93.60;;;;;;10470565;28;20225;-76
2022/09/26 14:46:35;;;;;;;3.70;1.27;;;17.00;95.30;;;;;;10473821;28;20657;-77
2022/09/26 14:51:40;;;;;;;6.00;1.17;;;16.80;97.10;;;;;;10488702;28;20226;-76
2022/09/26 14:56:45;;;;;;;1.60;1.00;;;16.90;97.80;;;;;;10487177;28;20220;-75
2022/09/26 15:01:50;;;;;;;3.00;1.10;;;16.90;98.00;;;;;;10490337;28;20223;-76
2022/09/26 15:06:55;;;;;;;1.80;0.97;;;16.90;98.70;;;;;;10467594;28;20223;-76
2022/09/26 15:11:58;;;;;;;5.10;1.40;;;17.00;98.60;;;;;;10474867;28;20226;-76
2022/09/26 15:17:01;;;;;;;2.97;1.30;;;16.90;99.50;;;;;;10482663;28;20235;-76
2022/09/26 15:22:13;;;;;;;1.57;1.10;;;16.70;99.90;;;;;;10483097;28;20203;-73
2022/09/26 15:27:34;;;;;;;3.77;1.03;;;16.40;99.90;;;;;;10476110;28;20252;-71
2022/09/26 15:32:35;;;;;;;1.50;1.20;;;16.10;99.90;;;;;;10480957;28;20277;-74
2022/09/26 15:37:36;;;;;;;2.27;0.93;;;15.90;99.90;;;;;;10480630;28;20235;-74
2022/09/26 15:48:03;;;;;;;3.03;1.10;;;15.70;99.90;;;;;;10470749;28;20224;-74
2022/09/26 15:53:11;;;;;;;1.53;0.90;;;15.60;99.90;;;;;;10479109;28;20212;-75
2022/09/26 15:58:17;;;;;;;3.23;1.10;;;15.60;99.90;;;;;;10469878;28;20219;-74
2022/09/26 16:03:34;;;;;;;2.23;1.00;;;15.50;99.90;;;;;;10457044;28;20247;-74
2022/09/26 16:08:40;;;;;;;1.77;0.80;;;15.30;99.90;;;;;;10473626;28;20599;-74
2022/09/26 16:13:45;;;;;;;0.97;0.67;;;15.20;99.90;;;;;;10472831;28;20219;-74
2022/09/26 16:18:54;;;;;;;1.73;0.50;;;15.20;99.90;;;;;;10466705;28;20712;-74
2022/09/26 16:23:57;;;;;;;2.40;1.20;;;15.20;99.90;;;;;;10470721;28;20701;-74
2022/09/26 16:28:59;;;;;;;1.77;1.00;;;15.10;99.90;;;;;;10478832;28;20674;-74
2022/09/26 16:34:00;;;;;;;1.90;1.00;;;15.00;99.90;;;;;;10473280;28;20239;-75
2022/09/26 16:39:06;;;;;;;2.23;1.40;;;14.90;99.90;;;;;;10460272;28;20224;-74
2022/09/26 16:44:35;;;;;;;1.23;0.80;;;14.70;99.90;;;;;;10468539;28;20302;-75
2022/09/26 16:49:47;;;;;;;2.80;1.20;;;14.60;99.90;;;;;;10445044;28;20240;-73
2022/09/26 16:54:49;;;;;;;4.27;1.33;;;14.50;99.90;;;;;;10460121;28;20218;-74
2022/09/26 17:01:52;;;;;;;1.90;1.30;;;14.50;99.90;;;;;;10460606;28;20686;-75
2022/09/26 17:05:20;;;;;;;3.20;1.20;;;14.40;99.90;;;;;;10477326;28;20231;-75
2022/09/26 17:10:24;;;;;;;4.07;1.33;;;14.40;99.90;;;;;;10476378;28;20185;-74
2022/09/26 17:15:27;;;;;;;2.70;1.40;;;14.30;99.90;;;;;;10477603;28;20224;-75
2022/09/26 17:20:28;;;;;;;3.10;1.33;;;14.30;99.90;;;;;;10477579;28;20284;-74
2022/09/26 17:25:30;;;;;;;2.03;1.23;;;14.20;99.90;;;;;;10466951;28;20284;-72
2022/09/26 17:30:34;;;;;;;2.23;1.30;;;14.10;99.90;;;;;;10469075;28;20212;-75
2022/09/26 17:35:35;;;;;;;2.60;1.33;;;14.10;99.90;;;;;;10473592;28;20301;-74
2022/09/26 17:40:36;;;;;;;4.00;1.70;;;14.10;99.90;;;;;;10476292;28;20767;-74
2022/09/26 17:45:46;;;;;;;2.93;1.40;;;14.00;99.90;;;;;;10450334;28;20230;-74
2022/09/26 17:50:47;;;;;;;5.57;2.10;;;13.90;99.90;;;;;;10476847;28;20268;-74
2022/09/26 17:55:49;;;;;;;3.57;1.83;;;13.80;99.90;;;;;;10481127;28;20224;-73
2022/09/26 18:00:51;;;;;;;4.27;1.60;;;13.70;99.90;;;;;;10469103;28;20216;-73
2022/09/26 18:05:52;;;;;;;3.53;2.07;;;13.60;99.90;;;;;;10475072;28;20276;-74
2022/09/26 18:11:04;;;;;;;8.40;2.50;;;13.50;99.90;;;;;;10471471;28;20239;-75
2022/09/26 18:16:06;;;;;;;4.70;2.10;;;13.50;99.90;;;;;;10469782;28;20234;-74
2022/09/26 18:21:11;;;;;;;6.70;2.27;;;13.40;99.90;;;;;;10477013;28;20231;-74
2022/09/26 18:26:33;;;;;;;5.70;2.47;;;13.40;99.90;;;;;;10471088;28;20609;-74
2022/09/26 18:31:38;;;;;;;2.67;2.17;;;13.30;99.90;;;;;;10458200;28;20289;-75
2022/09/26 18:36:39;;;;;;;2.73;2.47;;;13.30;99.90;;;;;;10482214;28;20705;-75
2022/09/26 18:41:39;;;;;;;5.57;3.13;;;13.20;99.90;;;;;;10457973;28;20226;-76
2022/09/26 18:46:43;;;;;;;6.03;2.60;;;13.20;99.90;;;;;;10473291;28;20793;-74
2022/09/26 18:51:44;;;;;;;6.47;2.50;;;13.20;99.90;;;;;;10465163;28;20285;-76
2022/09/26 19:02:22;;;;;;;3.70;2.27;;;13.10;99.90;;;;;;10467704;28;20231;-75
2022/09/26 19:07:23;;;;;;;6.27;2.50;;;13.10;99.90;;;;;;10467340;28;20219;-75
2022/09/26 19:12:24;;;;;;;5.73;1.93;;;13.00;99.90;;;;;;10464777;28;20220;-73
2022/09/26 19:17:24;;;;;;;5.93;2.20;;;12.90;99.90;;;;;;10472048;28;20227;-74
2022/09/26 19:22:26;;;;;;;3.70;1.93;;;12.90;99.90;;;;;;10461697;28;20696;-73
2022/09/26 19:27:37;;;;;;;4.80;1.60;;;12.80;99.90;;;;;;10459324;28;20227;-74
2022/09/26 19:32:42;;;;;;;2.17;1.50;;;12.70;99.90;;;;;;10483391;28;20247;-74
2022/09/26 19:37:42;;;;;;;2.67;1.60;;;12.70;99.90;;;;;;10459697;28;20291;-75
2022/09/26 19:42:43;;;;;;;2.37;1.60;;;12.60;99.90;;;;;;10468220;28;20809;-73
2022/09/26 19:47:46;;;;;;;2.90;1.27;;;12.40;99.90;;;;;;10465993;28;20219;-74
2022/09/26 19:52:49;;;;;;;1.53;1.40;;;12.40;99.90;;;;;;10476448;28;20344;-75
2022/09/26 19:57:51;;;;;;;1.20;1.10;;;12.30;99.90;;;;;;10471023;28;20224;-75
2022/09/26 20:02:52;;;;;;;2.33;1.70;;;12.20;99.90;;;;;;10465490;28;20231;-74
2022/09/26 20:07:53;;;;;;;3.27;1.60;;;12.10;99.90;;;;;;10454104;28;20223;-75
2022/09/26 20:12:54;;;;;;;3.33;1.63;;;12.00;99.90;;;;;;10461967;28;20637;-74
2022/09/26 20:17:57;;;;;;;2.93;1.60;;;12.00;99.90;;;;;;10469887;28;20227;-74
2022/09/26 20:22:58;;;;;;;1.33;1.23;;;11.90;99.90;;;;;;10451542;28;20222;-73
2022/09/26 20:27:59;;;;;;;2.97;1.53;;;11.80;99.90;;;;;;10471328;28;20687;-73
2022/09/26 20:33:00;;;;;;;2.33;1.30;;;11.80;99.90;;;;;;10469756;28;20332;-75
2022/09/26 20:38:04;;;;;;;2.30;1.50;;;11.70;99.90;;;;;;10473880;28;20728;-75
2022/09/26 20:43:10;;;;;;;1.77;1.50;;;11.70;99.90;;;;;;10476330;28;20215;-75
2022/09/26 20:48:32;;;;;;;5.00;1.47;;;11.60;99.90;;;;;;10473144;28;20231;-75
2022/09/26 20:53:33;;;;;;;4.83;1.57;;;11.50;99.90;;;;;;10477095;28;20216;-75
2022/09/26 20:58:34;;;;;;;5.00;1.60;;;11.40;99.90;;;;;;10482490;28;20227;-75
2022/09/26 21:03:34;;;;;;;1.63;1.53;;;11.30;99.90;;;;;;10462755;28;20232;-75
2022/09/26 21:08:35;;;;;;;2.47;1.50;;;11.30;99.90;;;;;;10479836;28;20226;-77
2022/09/26 21:13:36;;;;;;;2.30;1.60;;;11.30;99.90;;;;;;10470783;28;20215;-75
2022/09/26 21:18:36;;;;;;;3.37;1.40;;;11.20;99.90;;;;;;10478637;28;20861;-76
2022/09/26 21:23:42;;;;;;;1.83;1.40;;;11.20;99.90;;;;;;10470416;28;20223;-75
2022/09/26 21:28:42;;;;;;;3.27;1.57;;;11.20;99.90;;;;;;10488434;28;20244;-75
2022/09/26 21:33:44;;;;;;;2.90;1.90;;;11.10;99.90;;;;;;10474413;28;20287;-76
2022/09/26 21:38:44;;;;;;;4.33;2.10;;;11.10;99.90;;;;;;10492242;28;20222;-75
2022/09/26 21:43:53;;;;;;;4.47;1.90;;;11.10;99.90;;;;;;10469968;28;20223;-75
2022/09/26 21:48:54;;;;;;;2.47;1.50;;;11.20;99.90;;;;;;10474545;28;20223;-76
2022/09/26 21:54:05;;;;;;;2.33;2.03;;;11.20;99.90;;;;;;10471780;28;20316;-76
2022/09/26 21:59:06;;;;;;;3.20;1.47;;;11.20;99.90;;;;;;10484229;28;20297;-75
2022/09/26 22:04:07;;;;;;;1.27;1.10;;;11.20;99.90;;;;;;10463000;28;20307;-76
2022/09/26 22:09:11;;;;;;;1.67;1.57;;;11.20;99.90;;;;;;10476952;28;20597;-76
2022/09/26 22:14:12;;;;;;;1.70;1.40;;;11.20;99.90;;;;;;10477186;28;20748;-76
2022/09/26 22:19:13;;;;;;;3.80;1.80;;;11.10;99.90;;;;;;10472736;28;20241;-75
2022/09/26 22:24:14;;;;;;;2.33;1.47;;;11.10;99.90;;;;;;10471007;28;20642;-76
2022/09/26 22:29:14;;;;;;;3.07;1.83;;;11.00;99.90;;;;;;10473935;28;20248;-76
2022/09/26 22:34:15;;;;;;;2.40;1.60;;;11.00;99.90;;;;;;10471624;28;20640;-76
2022/09/26 22:39:16;;;;;;;2.17;1.97;;;10.90;99.90;;;;;;10472880;28;20246;-76
2022/09/26 22:44:16;;;;;;;1.90;1.70;;;10.90;99.90;;;;;;10475414;28;20261;-75
2022/09/26 22:49:17;;;;;;;3.23;1.90;;;10.90;99.90;;;;;;10475725;28;20219;-76
2022/09/26 22:54:18;;;;;;;4.47;2.03;;;10.90;99.90;;;;;;10472247;28;20284;-76
2022/09/26 22:59:19;;;;;;;3.73;1.97;;;10.90;99.90;;;;;;10467818;28;20223;-77
2022/09/26 23:04:19;;;;;;;2.43;1.60;;;10.90;99.90;;;;;;10475501;28;20223;-76
2022/09/26 23:09:20;;;;;;;1.87;1.63;;;10.90;99.90;;;;;;10471430;28;20701;-76
2022/09/26 23:14:20;;;;;;;2.93;1.70;;;10.90;99.90;;;;;;10458396;28;20218;-75
2022/09/26 23:19:21;;;;;;;2.87;1.80;;;10.90;99.90;;;;;;10471900;28;20746;-75
2022/09/26 23:24:22;;;;;;;3.63;1.70;;;10.90;99.90;;;;;;10466202;28;20222;-76
2022/09/26 23:29:23;;;;;;;2.90;1.93;;;10.90;99.90;;;;;;10475665;28;20220;-75
2022/09/26 23:34:23;;;;;;;3.23;1.77;;;11.00;99.90;;;;;;10467238;28;20315;-76
2022/09/26 23:39:24;;;;;;;2.20;2.00;;;11.00;99.90;;;;;;10476422;28;20234;-75
2022/09/26 23:44:26;;;;;;;2.23;2.00;;;11.00;99.90;;;;;;10472260;28;20265;-75
2022/09/26 23:49:26;;;;;;;4.23;2.43;;;11.00;99.90;;;;;;10474186;28;20633;-75
2022/09/26 23:54:27;;;;;;;2.17;1.77;;;11.00;99.90;;;;;;10457124;28;20243;-76
2022/09/26 23:59:28;;;;;;;3.27;2.33;;;11.00;99.90;;;;;;10481819;28;20223;-76
